createdAt,value
2019-03-11T00:00:58.200Z,89.00
2019-03-11T00:03:25.617Z,89.70
2019-03-11T00:05:52.855Z,88.60
2019-03-11T00:08:20.181Z,88.10
2019-03-11T00:10:47.389Z,87.40
2019-03-11T00:13:14.607Z,87.20
2019-03-11T00:15:41.899Z,87.20
2019-03-11T00:18:09.200Z,86.70
2019-03-11T00:20:36.583Z,85.80
2019-03-11T00:23:03.789Z,85.40
2019-03-11T00:25:31.127Z,85.00
2019-03-11T00:27:58.356Z,86.20
2019-03-11T00:30:25.652Z,88.40
2019-03-11T00:32:52.959Z,90.20
2019-03-11T00:35:20.214Z,91.60
2019-03-11T00:37:47.424Z,92.30
2019-03-11T00:40:14.623Z,92.80
2019-03-11T00:42:41.994Z,93.30
2019-03-11T00:45:09.765Z,93.90
2019-03-11T00:47:37.091Z,94.30
2019-03-11T00:50:05.229Z,94.50
2019-03-11T00:52:32.609Z,94.80
2019-03-11T00:55:00.014Z,95.20
2019-03-11T00:57:27.210Z,95.50
2019-03-11T00:59:54.453Z,95.80
2019-03-11T01:02:21.800Z,95.90
2019-03-11T01:04:49.202Z,96.00
2019-03-11T01:07:16.409Z,96.10
2019-03-11T01:09:43.658Z,96.20
2019-03-11T01:12:10.862Z,96.30
2019-03-11T01:14:38.264Z,96.50
2019-03-11T01:17:05.458Z,96.50
2019-03-11T01:19:32.678Z,96.60
2019-03-11T01:22:00.034Z,96.80
2019-03-11T01:24:27.327Z,97.10
2019-03-11T01:26:54.564Z,97.20
2019-03-11T01:29:21.928Z,97.20
2019-03-11T01:31:49.233Z,97.30
2019-03-11T01:34:16.559Z,97.30
2019-03-11T01:36:43.910Z,97.20
2019-03-11T01:39:11.121Z,97.20
2019-03-11T01:41:38.433Z,97.10
2019-03-11T01:44:05.809Z,97.10
2019-03-11T01:46:33.127Z,97.00
2019-03-11T01:49:00.378Z,97.00
2019-03-11T01:51:27.582Z,96.90
2019-03-11T01:53:54.898Z,96.90
2019-03-11T01:56:22.243Z,97.00
2019-03-11T01:58:49.505Z,97.00
2019-03-11T02:01:16.852Z,97.00
2019-03-11T02:03:44.213Z,97.00
2019-03-11T02:06:11.447Z,97.00
2019-03-11T02:08:38.737Z,97.00
2019-03-11T02:11:06.065Z,96.90
2019-03-11T02:13:34.519Z,96.70
2019-03-11T02:16:01.840Z,96.50
2019-03-11T02:18:29.142Z,96.30
2019-03-11T02:20:56.554Z,96.50
2019-03-11T02:23:23.879Z,95.90
2019-03-11T02:25:51.194Z,95.70
2019-03-11T02:28:18.414Z,95.50
2019-03-11T02:30:45.628Z,95.40
2019-03-11T02:33:12.822Z,95.30
2019-03-11T02:35:40.133Z,95.50
2019-03-11T02:38:07.514Z,95.10
2019-03-11T02:40:34.762Z,94.90
2019-03-11T02:43:02.123Z,94.80
2019-03-11T02:45:29.386Z,94.80
2019-03-11T02:47:56.726Z,94.60
2019-03-11T02:50:24.237Z,94.50
2019-03-11T02:52:51.480Z,94.30
2019-03-11T02:55:18.796Z,94.20
2019-03-11T02:57:46.019Z,94.00
2019-03-11T03:00:15.821Z,93.80
2019-03-11T03:03:09.125Z,93.60
2019-03-11T03:05:40.259Z,93.40
2019-03-11T03:08:07.590Z,93.20
2019-03-11T03:10:34.784Z,93.20
2019-03-11T03:13:02.100Z,93.20
2019-03-11T03:15:29.437Z,93.10
2019-03-11T03:17:56.761Z,93.10
2019-03-11T03:20:23.956Z,93.10
2019-03-11T03:22:51.293Z,93.00
2019-03-11T03:25:32.783Z,93.00
2019-03-11T03:27:47.851Z,93.00
2019-03-11T03:30:15.886Z,93.10
2019-03-11T03:32:43.189Z,93.00
2019-03-11T03:35:10.576Z,93.00
2019-03-11T03:37:37.892Z,93.00
2019-03-11T03:40:05.384Z,93.10
2019-03-11T03:42:32.767Z,93.00
2019-03-11T03:45:22.351Z,92.90
2019-03-11T03:47:49.584Z,92.90
2019-03-11T03:50:16.771Z,92.80
2019-03-11T03:52:44.122Z,92.60
2019-03-11T03:55:11.436Z,92.40
2019-03-11T03:57:38.649Z,92.30
2019-03-11T04:00:05.931Z,92.10
2019-03-11T04:02:33.237Z,91.90
2019-03-11T04:05:00.529Z,91.90
2019-03-11T04:07:27.952Z,91.70
2019-03-11T04:09:55.268Z,91.70
2019-03-11T04:12:22.470Z,91.60
2019-03-11T04:14:49.714Z,91.50
2019-03-11T04:17:16.973Z,91.40
2019-03-11T04:19:44.214Z,91.30
2019-03-11T04:22:11.614Z,91.30
2019-03-11T04:24:39.111Z,91.20
2019-03-11T04:27:08.454Z,91.20
2019-03-11T04:29:35.696Z,91.10
2019-03-11T04:32:02.985Z,91.10
2019-03-11T04:34:30.338Z,91.20
2019-03-11T04:36:57.652Z,91.20
2019-03-11T04:39:24.860Z,91.20
2019-03-11T04:41:52.180Z,91.10
2019-03-11T04:44:19.532Z,91.10
2019-03-11T04:46:46.753Z,91.10
2019-03-11T04:49:14.666Z,91.10
2019-03-11T04:51:41.987Z,91.10
2019-03-11T04:54:09.329Z,90.60
2019-03-11T04:56:36.643Z,90.20
2019-03-11T04:59:11.235Z,90.10
2019-03-11T05:01:38.575Z,89.50
2019-03-11T05:04:05.818Z,88.60
2019-03-11T05:06:33.124Z,88.40
2019-03-11T05:09:00.775Z,88.60
2019-03-11T05:11:27.993Z,88.60
2019-03-11T05:13:55.357Z,88.20
2019-03-11T05:16:22.941Z,88.40
2019-03-11T05:18:50.328Z,88.70
2019-03-11T05:21:17.663Z,88.90
2019-03-11T05:23:44.910Z,89.10
2019-03-11T05:26:12.249Z,89.30
2019-03-11T05:28:39.620Z,89.50
2019-03-11T05:31:06.858Z,89.80
2019-03-11T05:33:34.262Z,90.00
2019-03-11T05:36:01.578Z,90.20
2019-03-11T05:38:28.945Z,90.40
2019-03-11T05:40:56.390Z,90.50
2019-03-11T05:43:23.706Z,90.70
2019-03-11T05:45:50.924Z,90.90
2019-03-11T05:48:18.168Z,91.00
2019-03-11T05:50:45.475Z,91.10
2019-03-11T05:53:12.843Z,91.10
2019-03-11T05:55:40.161Z,91.30
2019-03-11T05:58:07.408Z,91.30
2019-03-11T06:00:34.727Z,91.30
2019-03-11T06:03:01.950Z,91.20
2019-03-11T06:05:29.173Z,91.00
2019-03-11T06:07:56.497Z,90.80
2019-03-11T06:10:23.742Z,90.80
2019-03-11T06:12:50.955Z,91.20
2019-03-11T06:15:18.173Z,91.70
2019-03-11T06:17:45.567Z,92.00
2019-03-11T06:20:38.784Z,92.30
2019-03-11T06:23:07.518Z,92.70
2019-03-11T06:25:35.048Z,92.90
2019-03-11T06:28:02.601Z,93.10
2019-03-11T06:30:29.937Z,93.30
2019-03-11T06:32:57.259Z,93.60
2019-03-11T06:35:24.489Z,93.80
2019-03-11T06:37:51.722Z,93.90
2019-03-11T06:40:19.040Z,94.00
2019-03-11T06:42:46.368Z,94.20
2019-03-11T06:45:13.874Z,94.40
2019-03-11T06:47:41.210Z,94.40
2019-03-11T06:50:08.521Z,94.50
2019-03-11T06:52:35.851Z,94.60
2019-03-11T06:55:03.363Z,94.60
2019-03-11T06:57:30.709Z,94.60
2019-03-11T06:59:58.014Z,94.50
2019-03-11T07:02:25.366Z,94.50
2019-03-11T07:04:52.569Z,94.50
2019-03-11T07:07:19.810Z,94.40
2019-03-11T07:09:47.033Z,94.50
2019-03-11T07:12:14.356Z,94.70
2019-03-11T07:14:41.668Z,94.80
2019-03-11T07:17:08.904Z,94.80
2019-03-11T07:19:36.482Z,95.00
2019-03-11T07:22:03.793Z,95.10
2019-03-11T07:24:31.016Z,95.10
2019-03-11T07:26:58.329Z,95.10
2019-03-11T07:29:25.532Z,95.20
2019-03-11T07:31:52.736Z,95.20
2019-03-11T07:34:20.083Z,95.20
2019-03-11T07:36:47.345Z,95.20
2019-03-11T07:39:14.649Z,95.20
2019-03-11T07:41:41.968Z,95.20
2019-03-11T07:44:09.285Z,95.20
2019-03-11T07:46:36.600Z,95.20
2019-03-11T07:49:03.776Z,95.20
2019-03-11T07:51:30.993Z,95.00
2019-03-11T07:53:58.297Z,94.50
2019-03-11T07:56:25.588Z,94.40
2019-03-11T07:58:52.815Z,94.30
2019-03-11T08:01:20.096Z,94.30
2019-03-11T08:03:47.292Z,94.30
2019-03-11T08:06:18.609Z,94.30
2019-03-11T08:08:43.605Z,94.20
2019-03-11T08:11:10.913Z,94.40
2019-03-11T08:13:38.248Z,94.40
2019-03-11T08:16:05.546Z,94.40
2019-03-11T08:18:35.213Z,94.50
2019-03-11T08:21:01.876Z,94.50
2019-03-11T08:23:29.069Z,94.50
2019-03-11T08:25:56.388Z,94.60
2019-03-11T08:28:23.637Z,94.70
2019-03-11T08:30:51.194Z,94.90
2019-03-11T08:33:18.393Z,95.00
2019-03-11T08:35:45.578Z,94.90
2019-03-11T08:38:12.920Z,94.80
2019-03-11T08:40:42.672Z,94.70
2019-03-11T08:43:10.544Z,94.60
2019-03-11T08:45:37.744Z,94.50
2019-03-11T08:48:05.060Z,94.50
2019-03-11T08:50:32.365Z,94.40
2019-03-11T08:52:59.585Z,94.40
2019-03-11T08:55:26.791Z,94.30
2019-03-11T08:57:53.978Z,94.20
2019-03-11T09:00:21.697Z,94.00
2019-03-11T09:02:49.010Z,93.80
2019-03-11T09:05:16.203Z,93.70
2019-03-11T09:07:43.404Z,93.30
2019-03-11T09:10:11.781Z,93.30
2019-03-11T09:12:38.969Z,93.20
2019-03-11T09:15:08.433Z,93.20
2019-03-11T09:17:35.789Z,93.30
2019-03-11T09:20:03.299Z,93.40
2019-03-11T09:22:30.507Z,93.50
2019-03-11T09:24:57.802Z,93.60
2019-03-11T09:27:25.021Z,93.50
2019-03-11T09:29:52.198Z,93.40
2019-03-11T09:32:19.676Z,93.30
2019-03-11T09:34:47.100Z,93.30
2019-03-11T09:37:14.393Z,93.10
2019-03-11T09:39:41.687Z,92.60
2019-03-11T09:42:09.113Z,92.20
2019-03-11T09:44:36.350Z,91.60
2019-03-11T09:47:03.698Z,91.40
2019-03-11T09:49:30.887Z,91.30
2019-03-11T09:51:58.689Z,91.30
2019-03-11T09:54:25.988Z,91.00
2019-03-11T09:56:53.300Z,91.10
2019-03-11T09:59:20.500Z,91.10
2019-03-11T10:01:47.892Z,90.30
2019-03-11T10:04:15.118Z,89.80
2019-03-11T10:06:42.328Z,89.60
2019-03-11T10:09:09.547Z,89.20
2019-03-11T10:11:36.766Z,89.50
2019-03-11T10:14:04.088Z,90.00
2019-03-11T10:16:31.410Z,90.20
2019-03-11T10:18:58.631Z,90.20
2019-03-11T10:21:25.832Z,90.10
2019-03-11T10:23:53.066Z,90.10
2019-03-11T10:26:20.294Z,89.60
2019-03-11T10:28:47.630Z,89.10
2019-03-11T10:31:14.934Z,88.90
2019-03-11T10:33:42.236Z,89.30
2019-03-11T10:36:09.582Z,89.50
2019-03-11T10:38:36.784Z,89.20
2019-03-11T10:41:03.996Z,89.50
2019-03-11T10:43:31.284Z,89.40
2019-03-11T10:45:58.628Z,88.50
2019-03-11T10:48:36.390Z,87.80
2019-03-11T10:50:55.079Z,88.40
2019-03-11T10:53:22.462Z,88.90
2019-03-11T10:55:49.669Z,89.10
2019-03-11T10:58:16.984Z,89.50
2019-03-11T11:00:44.192Z,90.00
2019-03-11T11:03:11.478Z,90.60
2019-03-11T11:05:40.830Z,91.30
2019-03-11T11:08:08.134Z,91.70
2019-03-11T11:10:35.435Z,92.20
2019-03-11T11:13:02.859Z,92.80
2019-03-11T11:15:30.327Z,93.20
2019-03-11T11:17:57.543Z,93.60
2019-03-11T11:20:24.830Z,93.90
2019-03-11T11:22:52.352Z,94.40
2019-03-11T11:25:19.656Z,94.50
2019-03-11T11:27:46.981Z,94.80
2019-03-11T11:30:16.668Z,95.00
2019-03-11T11:32:43.960Z,95.00
2019-03-11T11:35:11.307Z,94.90
2019-03-11T11:37:38.495Z,94.80
2019-03-11T11:40:08.569Z,94.60
2019-03-11T11:42:35.767Z,94.50
2019-03-11T11:45:03.389Z,94.50
2019-03-11T11:47:30.684Z,92.80
2019-03-11T11:49:58.109Z,91.40
2019-03-11T11:52:25.413Z,86.90
2019-03-11T11:54:52.634Z,82.90
2019-03-11T11:57:19.809Z,82.50
2019-03-11T11:59:54.085Z,82.50
2019-03-11T12:02:16.251Z,81.20
2019-03-11T12:04:43.571Z,76.60
2019-03-11T12:07:10.869Z,74.90
2019-03-11T12:09:38.093Z,76.10
2019-03-11T12:12:06.168Z,77.70
2019-03-11T12:14:33.587Z,79.40
2019-03-11T12:17:00.773Z,80.70
2019-03-11T12:19:27.985Z,82.70
2019-03-11T12:21:55.188Z,84.10
2019-03-11T12:24:22.385Z,84.70
2019-03-11T12:26:49.693Z,85.10
2019-03-11T12:29:16.897Z,85.10
2019-03-11T12:31:44.213Z,84.30
2019-03-11T12:34:11.545Z,83.80
2019-03-11T12:36:38.753Z,83.20
2019-03-11T12:39:06.183Z,82.30
2019-03-11T12:41:33.557Z,81.30
2019-03-11T12:44:00.865Z,78.70
2019-03-11T12:46:28.211Z,76.30
2019-03-11T12:48:55.393Z,76.30
2019-03-11T12:51:22.700Z,75.60
2019-03-11T12:53:49.925Z,72.00
2019-03-11T12:56:17.141Z,71.30
2019-03-11T12:58:44.341Z,70.20
2019-03-11T13:01:11.585Z,69.70
2019-03-11T13:03:38.888Z,68.40
2019-03-11T13:06:06.111Z,67.70
2019-03-11T13:08:33.589Z,67.50
2019-03-11T13:11:00.791Z,66.70
2019-03-11T13:13:28.154Z,67.40
2019-03-11T13:15:55.450Z,66.50
2019-03-11T13:18:34.036Z,66.00
2019-03-11T13:21:05.452Z,66.00
2019-03-11T13:23:32.856Z,66.50
2019-03-11T13:26:00.052Z,65.90
2019-03-11T13:28:27.248Z,64.20
2019-03-11T13:30:54.559Z,62.10
2019-03-11T13:33:21.897Z,62.30
2019-03-11T13:35:49.192Z,62.30
2019-03-11T13:38:16.501Z,62.90
2019-03-11T13:40:43.848Z,62.90
2019-03-11T13:43:11.056Z,64.10
2019-03-11T13:45:38.363Z,64.00
2019-03-11T13:48:05.615Z,62.70
2019-03-11T13:50:32.820Z,63.00
2019-03-11T13:53:00.101Z,63.80
2019-03-11T13:55:27.321Z,65.00
2019-03-11T13:57:54.628Z,66.00
2019-03-11T14:00:21.861Z,67.00
2019-03-11T14:02:49.282Z,67.40
2019-03-11T14:05:16.538Z,66.40
2019-03-11T14:07:43.866Z,64.90
2019-03-11T14:10:11.524Z,65.00
2019-03-11T14:12:38.824Z,65.00
2019-03-11T14:15:06.565Z,64.70
2019-03-11T14:17:33.780Z,64.30
2019-03-11T14:20:00.989Z,62.80
2019-03-11T14:22:28.200Z,61.80
2019-03-11T14:24:55.541Z,61.00
2019-03-11T14:27:22.761Z,60.50
2019-03-11T14:29:50.049Z,59.70
2019-03-11T14:32:18.074Z,59.40
2019-03-11T14:34:45.444Z,59.50
2019-03-11T14:37:12.664Z,59.80
2019-03-11T14:39:39.983Z,59.90
2019-03-11T14:42:07.375Z,59.70
2019-03-11T14:44:34.698Z,60.10
2019-03-11T14:47:01.992Z,60.50
2019-03-11T14:49:29.195Z,60.90
2019-03-11T14:51:56.526Z,61.10
2019-03-11T14:54:23.837Z,61.00
2019-03-11T14:56:51.114Z,61.20
2019-03-11T14:59:18.354Z,61.30
2019-03-11T15:01:45.543Z,62.30
2019-03-11T15:04:12.766Z,63.40
2019-03-11T15:06:39.986Z,64.30
2019-03-11T15:09:07.309Z,64.70
2019-03-11T15:11:34.519Z,64.80
2019-03-11T15:14:02.556Z,64.70
2019-03-11T15:16:29.831Z,64.10
2019-03-11T15:18:57.239Z,62.20
2019-03-11T15:21:24.531Z,61.80
2019-03-11T15:23:51.739Z,61.50
2019-03-11T15:26:24.959Z,62.60
2019-03-11T15:28:48.206Z,62.20
2019-03-11T15:31:15.518Z,61.40
2019-03-11T15:33:42.709Z,61.90
2019-03-11T15:36:09.917Z,61.40
2019-03-11T15:38:37.107Z,60.80
2019-03-11T15:41:04.450Z,60.40
2019-03-11T15:43:31.803Z,60.60
2019-03-11T15:45:59.013Z,60.60
2019-03-11T15:48:26.236Z,60.50
2019-03-11T15:50:53.477Z,60.80
2019-03-11T15:53:20.839Z,60.70
2019-03-11T15:55:48.065Z,61.10
2019-03-11T15:58:15.400Z,61.10
2019-03-11T16:00:42.711Z,61.40
2019-03-11T16:03:09.928Z,61.80
2019-03-11T16:05:37.137Z,62.10
2019-03-11T16:08:04.349Z,62.30
2019-03-11T16:10:31.739Z,62.80
2019-03-11T16:12:59.034Z,63.20
2019-03-11T16:15:26.348Z,63.60
2019-03-11T16:17:53.602Z,63.90
2019-03-11T16:20:21.004Z,64.20
2019-03-11T16:22:48.350Z,64.50
2019-03-11T16:25:15.789Z,64.60
2019-03-11T16:27:43.130Z,64.70
2019-03-11T16:30:12.267Z,64.70
2019-03-11T16:32:57.197Z,64.50
2019-03-11T16:35:08.750Z,64.60
2019-03-11T16:37:36.083Z,65.10
2019-03-11T16:40:03.769Z,65.50
2019-03-11T16:42:31.029Z,65.80
2019-03-11T16:44:58.397Z,66.30
2019-03-11T16:47:25.722Z,67.00
2019-03-11T16:49:53.044Z,68.00
2019-03-11T16:52:20.368Z,68.70
2019-03-11T16:54:47.706Z,69.40
2019-03-11T16:57:15.009Z,70.10
2019-03-11T16:59:42.443Z,70.70
2019-03-11T17:02:10.065Z,71.10
2019-03-11T17:04:37.404Z,71.60
2019-03-11T17:07:04.618Z,72.10
2019-03-11T17:09:31.908Z,72.40
2019-03-11T17:11:59.289Z,72.80
2019-03-11T17:14:26.603Z,73.20
2019-03-11T17:16:53.918Z,73.40
2019-03-11T17:19:21.218Z,73.70
2019-03-11T17:21:48.552Z,74.20
2019-03-11T17:24:15.833Z,74.50
2019-03-11T17:26:43.127Z,74.70
2019-03-11T17:29:10.436Z,74.80
2019-03-11T17:31:37.648Z,74.90
2019-03-11T17:34:05.001Z,75.10
2019-03-11T17:36:32.234Z,75.10
2019-03-11T17:38:59.461Z,75.10
2019-03-11T17:41:26.805Z,74.80
2019-03-11T17:43:54.018Z,74.70
2019-03-11T17:46:21.366Z,74.50
2019-03-11T17:48:48.726Z,74.30
2019-03-11T17:51:15.931Z,74.00
2019-03-11T17:53:43.135Z,73.90
2019-03-11T17:56:10.498Z,74.00
2019-03-11T17:58:37.915Z,73.90
2019-03-11T18:01:05.352Z,73.90
2019-03-11T18:03:32.709Z,74.00
2019-03-11T18:06:10.782Z,74.20
2019-03-11T18:08:29.249Z,74.40
2019-03-11T18:10:56.624Z,74.50
2019-03-11T18:13:23.950Z,74.60
2019-03-11T18:15:51.163Z,74.70
2019-03-11T18:18:18.561Z,74.90
2019-03-11T18:20:45.943Z,75.00
2019-03-11T18:23:13.259Z,75.00
2019-03-11T18:25:40.463Z,75.00
2019-03-11T18:28:07.796Z,74.90
2019-03-11T18:30:35.249Z,74.70
2019-03-11T18:33:02.580Z,74.10
2019-03-11T18:35:29.932Z,73.70
2019-03-11T18:38:04.255Z,73.70
2019-03-11T18:40:26.541Z,74.40
2019-03-11T18:42:53.854Z,73.70
2019-03-11T18:45:21.358Z,73.70
2019-03-11T18:47:48.683Z,73.40
2019-03-11T18:50:16.094Z,73.30
2019-03-11T18:52:43.469Z,73.30
2019-03-11T18:55:10.819Z,73.30
2019-03-11T18:57:38.328Z,73.10
2019-03-11T19:00:07.041Z,73.20
2019-03-11T19:02:34.483Z,73.30
2019-03-11T19:05:01.909Z,73.30
2019-03-11T19:07:29.364Z,73.40
2019-03-11T19:09:56.800Z,73.30
2019-03-11T19:12:24.240Z,73.60
2019-03-11T19:14:51.658Z,73.70
2019-03-11T19:17:18.992Z,73.90
2019-03-11T19:19:46.722Z,74.20
2019-03-11T19:22:14.195Z,74.50
2019-03-11T19:24:41.497Z,74.70
2019-03-11T19:27:08.964Z,75.00
2019-03-11T19:29:36.292Z,75.10
2019-03-11T19:32:05.576Z,75.40
2019-03-11T19:34:32.966Z,75.60
2019-03-11T19:37:00.325Z,75.70
2019-03-11T19:39:27.734Z,75.70
2019-03-11T19:41:55.219Z,75.80
2019-03-11T19:44:22.575Z,75.90
2019-03-11T19:46:49.968Z,75.70
2019-03-11T19:49:17.383Z,75.90
2019-03-11T19:51:44.789Z,75.70
2019-03-11T19:54:12.230Z,75.70
2019-03-11T19:56:39.524Z,75.60
2019-03-11T19:59:07.011Z,75.70
2019-03-11T20:01:34.453Z,75.80
2019-03-11T20:04:01.929Z,76.00
2019-03-11T20:06:29.206Z,76.00
2019-03-11T20:08:56.583Z,76.10
2019-03-11T20:11:25.086Z,76.20
2019-03-11T20:13:52.628Z,76.50
2019-03-11T20:16:20.027Z,76.80
2019-03-11T20:18:47.464Z,77.00
2019-03-11T20:21:14.833Z,77.10
2019-03-11T20:23:42.260Z,77.30
2019-03-11T20:26:09.613Z,77.40
2019-03-11T20:28:37.037Z,77.50
2019-03-11T20:31:04.477Z,77.60
2019-03-11T20:33:32.139Z,77.70
2019-03-11T20:35:59.708Z,77.90
2019-03-11T20:38:27.163Z,78.00
2019-03-11T20:40:54.631Z,78.20
2019-03-11T20:43:22.065Z,78.30
2019-03-11T20:45:49.603Z,78.40
2019-03-11T20:48:17.076Z,79.20
2019-03-11T20:50:44.398Z,78.60
2019-03-11T20:53:11.839Z,78.70
2019-03-11T20:55:39.356Z,78.80
2019-03-11T20:58:06.707Z,79.10
2019-03-11T21:00:34.117Z,79.40
2019-03-11T21:03:01.581Z,79.70
2019-03-11T21:05:29.029Z,80.00
2019-03-11T21:07:56.507Z,80.30
2019-03-11T21:10:23.960Z,80.60
2019-03-11T21:12:51.329Z,81.00
2019-03-11T21:15:18.852Z,81.50
2019-03-11T21:17:46.244Z,81.70
2019-03-11T21:20:13.970Z,82.00
2019-03-11T21:22:41.478Z,82.30
2019-03-11T21:25:10.674Z,82.50
2019-03-11T21:27:38.160Z,83.00
2019-03-11T21:30:06.443Z,83.20
2019-03-11T21:32:33.741Z,83.50
2019-03-11T21:35:01.263Z,83.60
2019-03-11T21:37:29.009Z,83.80
2019-03-11T21:39:56.423Z,84.00
2019-03-11T21:42:23.869Z,84.20
2019-03-11T21:44:51.536Z,84.40
2019-03-11T21:47:19.107Z,84.60
2019-03-11T21:49:46.518Z,84.60
2019-03-11T21:52:13.990Z,84.90
2019-03-11T21:54:41.409Z,85.30
2019-03-11T21:57:08.821Z,85.40
2019-03-11T21:59:36.355Z,85.80
2019-03-11T22:02:03.777Z,85.90
2019-03-11T22:04:31.032Z,86.10
2019-03-11T22:06:58.406Z,86.40
2019-03-11T22:09:25.634Z,86.70
2019-03-11T22:11:53.087Z,86.80
2019-03-11T22:14:20.447Z,86.90
2019-03-11T22:16:47.812Z,87.10
2019-03-11T22:19:15.020Z,87.30
2019-03-11T22:21:42.349Z,87.40
2019-03-11T22:24:09.665Z,87.50
2019-03-11T22:26:37.004Z,87.70
2019-03-11T22:29:04.206Z,87.90
2019-03-11T22:31:31.527Z,88.10
2019-03-11T22:33:58.852Z,88.20
2019-03-11T22:36:26.188Z,88.40
2019-03-11T22:38:53.400Z,88.50
2019-03-11T22:41:20.733Z,88.60
2019-03-11T22:43:48.042Z,88.60
2019-03-11T22:46:15.257Z,88.70
2019-03-11T22:48:42.465Z,88.80
2019-03-11T22:51:09.815Z,88.90
2019-03-11T22:53:37.149Z,89.90
2019-03-11T22:56:04.520Z,89.30
2019-03-11T22:58:31.816Z,89.40
2019-03-11T23:01:00.945Z,89.60
2019-03-11T23:03:28.177Z,89.70
2019-03-11T23:05:58.217Z,89.90
2019-03-11T23:08:24.707Z,90.00
2019-03-11T23:10:52.077Z,90.10
2019-03-11T23:13:19.473Z,90.20
2019-03-11T23:15:46.720Z,90.30
2019-03-11T23:18:13.997Z,90.40
2019-03-11T23:20:41.205Z,90.40
2019-03-11T23:23:08.566Z,90.50
2019-03-11T23:25:35.880Z,90.60
2019-03-11T23:28:03.573Z,90.60
2019-03-11T23:30:30.871Z,90.70
2019-03-11T23:32:58.329Z,90.70
2019-03-11T23:35:25.740Z,90.80
2019-03-11T23:37:53.047Z,90.80
2019-03-11T23:40:20.389Z,90.80
2019-03-11T23:42:47.684Z,90.80
2019-03-11T23:45:14.906Z,91.00
2019-03-11T23:47:42.224Z,91.20
2019-03-11T23:50:09.604Z,91.30
2019-03-11T23:52:36.992Z,91.40
2019-03-11T23:55:04.626Z,91.50
2019-03-11T23:57:31.948Z,91.60
2019-03-11T23:59:59.288Z,91.80
